Terminal Aerodrome Forecast
Issued by NWS Mt. Holly, NJ

Home | Current Version | Previous Version | Text Only | Print | Product List | Glossary On
Versions: 1 2 3 4 5 6 7 8 9 10 11 12 13 14
182
FTUS41 KPHI 212336
TAFTTN
TAF
KTTN 212336Z 2200/2224 21007KT P6SM SCT070
     FM220400 VRB03KT P6SM BKN070
      TEMPO 2207/2211 5SM BR BKN030
     FM221300 23006KT P6SM FEW035 SCT100
     FM221800 22010KT P6SM SCT050 BKN250=

USA.gov is the U.S. government's official web portal to all federal, state and local government web resources and services.